Hlavní strana
METAR-TAF:

METAR-TAF

Letiště :

La Gomera, Španělsko

zeměpisná šířka: 28-01-47N, zeměpisná délka: 017-12-53W, výška: 218 m

Aktuální stav počasí

Zpráva byla vytvořena před 20 minutami, v 19:30 UTC
Východojihovýchodní vítr 4 kt
Teplota 17°C
Vlhkost vzduchu 63%
Tlak 1024 hPa
Viditelnost 10 km a více
Žádná oblačnost pod 1500 m, nevyskytují se cumulonimby.

METAR: GCGM 251930Z AUTO 12004KT CAVOK 17/10 Q1024 RMK R09/06005KT 350V130 ARP/10004KT 020V190

Čas: 19:50 (19:50 UTC)

Předpověď počasí

Zpráva byla vytvořena před 5 hodinami a 50 minutami, v 14:00 UTC
Předpověď platná od 25 v 15 UTC do 26 v 15 UTC
vítr z různých směrů 5 kt
Viditelnost 10 km a více
Polojasno ve výšce 4000 ft
Pravděpodobnost 40% :
Dočasný
od 25 v 20 UTC do 26 v 08 UTC
Severoseverozápadní vítr 10 kt
Změna
od 26 v 08 UTC do 26 v 10 UTC
Východojihovýchodní vítr 10 kt

TAF: GCGM 251400Z 2515/2615 VRB05KT 9999 SCT040 TX22/2515Z TN15/2606Z PROB40 TEMPO 2520/2608 34010KT BECMG 2608/2610 11010KT

Stav a předpovědi počasí z více než 4 000 letišť (zprávy METAR a TAF).

Červené a žluté tečky na mapě představují dostupné meteorologické stanice.

Když kurzor umístíte na tečku, zobrazí se název stanice.

Pak kliknutím zobrazíte stav a předpověď počasí.

Chcete-li změnit mapu, kliknutím na zelené tlačítko se znaménkem +mapu přiblížíte, kliknutím na zelené tlačítko se znaménkem – mapu oddálíte a kliknutím na zelené šipky přejdete na sousední mapy.


METAR-TAF: